createdAt,value
2017-10-19T00:00:02.328Z,6.70
2017-10-19T00:01:02.397Z,6.72
2017-10-19T00:02:02.329Z,6.79
2017-10-19T00:03:02.397Z,6.87
2017-10-19T00:04:02.350Z,6.87
2017-10-19T00:05:02.405Z,6.91
2017-10-19T00:06:02.400Z,6.91
2017-10-19T00:07:02.331Z,6.95
2017-10-19T00:08:02.329Z,6.95
2017-10-19T00:09:02.404Z,6.95
2017-10-19T00:10:02.332Z,6.95
2017-10-19T00:11:02.341Z,7.00
2017-10-19T00:12:02.405Z,7.01
2017-10-19T00:13:02.336Z,6.98
2017-10-19T00:14:02.404Z,6.95
2017-10-19T00:15:02.337Z,7.00
2017-10-19T00:16:02.410Z,7.05
2017-10-19T00:17:02.344Z,7.15
2017-10-19T00:18:02.411Z,7.22
2017-10-19T00:19:02.343Z,7.22
2017-10-19T00:20:02.410Z,7.22
2017-10-19T00:21:02.340Z,7.24
2017-10-19T00:22:02.409Z,7.29
2017-10-19T00:23:02.344Z,7.27
2017-10-19T00:24:02.346Z,7.26
2017-10-19T00:25:02.412Z,7.24
2017-10-19T00:26:02.345Z,7.27
2017-10-19T00:27:02.430Z,7.26
2017-10-19T00:28:02.350Z,7.30
2017-10-19T00:29:02.277Z,7.31
2017-10-19T00:30:02.345Z,7.37
2017-10-19T00:31:02.368Z,7.38
2017-10-19T00:32:02.304Z,7.40
2017-10-19T00:33:02.275Z,7.40
2017-10-19T00:34:02.397Z,7.40
2017-10-19T00:35:02.374Z,7.41
2017-10-19T00:36:02.311Z,7.40
2017-10-19T00:37:02.284Z,7.40
2017-10-19T00:38:02.400Z,7.41
2017-10-19T00:39:02.420Z,7.44
2017-10-19T00:40:02.351Z,7.44
2017-10-19T00:41:02.419Z,7.48
2017-10-19T00:42:02.353Z,7.46
2017-10-19T00:43:02.352Z,7.45
2017-10-19T00:44:02.423Z,7.46
2017-10-19T00:45:02.424Z,7.48
2017-10-19T00:46:02.424Z,7.48
2017-10-19T00:47:02.356Z,7.48
2017-10-19T00:48:02.424Z,7.48
2017-10-19T00:49:02.358Z,7.48
2017-10-19T00:50:02.433Z,7.48
2017-10-19T00:51:02.357Z,7.48
2017-10-19T00:52:02.427Z,7.49
2017-10-19T00:53:02.429Z,7.53
2017-10-19T00:54:02.362Z,7.53
2017-10-19T00:55:02.430Z,7.53
2017-10-19T00:56:02.363Z,7.55
2017-10-19T00:57:02.429Z,7.53
2017-10-19T00:58:02.444Z,7.53
2017-10-19T00:59:02.326Z,7.55
2017-10-19T01:00:02.282Z,7.59
2017-10-19T01:01:02.377Z,7.60
2017-10-19T01:02:02.283Z,7.67
2017-10-19T01:03:02.289Z,7.72
2017-10-19T01:04:02.332Z,7.76
2017-10-19T01:05:02.298Z,7.81
2017-10-19T01:06:02.333Z,7.79
2017-10-19T01:07:02.333Z,7.81
2017-10-19T01:08:02.289Z,7.79
2017-10-19T01:09:02.371Z,7.79
2017-10-19T01:10:02.436Z,7.79
2017-10-19T01:11:02.329Z,7.79
2017-10-19T01:12:02.377Z,7.82
2017-10-19T01:13:02.425Z,7.81
2017-10-19T01:14:02.396Z,7.82
2017-10-19T01:15:02.350Z,7.83
2017-10-19T01:16:02.350Z,7.82
2017-10-19T01:17:02.322Z,7.83
2017-10-19T01:18:02.428Z,7.85
2017-10-19T01:19:02.382Z,7.85
2017-10-19T01:20:02.444Z,7.83
2017-10-19T01:21:02.445Z,7.82
2017-10-19T01:22:02.444Z,7.83
2017-10-19T01:23:02.446Z,7.83
2017-10-19T01:24:02.393Z,7.83
2017-10-19T01:25:02.449Z,7.83
2017-10-19T01:26:02.378Z,7.83
2017-10-19T01:27:02.449Z,7.81
2017-10-19T01:28:02.417Z,7.81
2017-10-19T01:29:02.450Z,7.81
2017-10-19T01:30:02.382Z,7.79
2017-10-19T01:31:02.449Z,7.79
2017-10-19T01:32:02.388Z,7.79
2017-10-19T01:33:02.388Z,7.79
2017-10-19T01:34:02.456Z,7.79
2017-10-19T01:35:02.414Z,7.78
2017-10-19T01:36:02.456Z,7.78
2017-10-19T01:37:02.410Z,7.76
2017-10-19T01:38:02.382Z,7.78
2017-10-19T01:39:02.340Z,7.79
2017-10-19T01:40:02.410Z,7.79
2017-10-19T01:41:02.448Z,7.78
2017-10-19T01:42:02.362Z,7.79
2017-10-19T01:43:02.358Z,7.79
2017-10-19T01:44:02.321Z,7.79
2017-10-19T01:45:02.450Z,7.78
2017-10-19T01:46:02.385Z,7.78
2017-10-19T01:47:02.391Z,7.76
2017-10-19T01:48:02.561Z,7.74
2017-10-19T01:49:02.411Z,7.74
2017-10-19T01:50:02.360Z,7.72
2017-10-19T01:51:02.468Z,7.72
2017-10-19T01:52:02.397Z,7.71
2017-10-19T01:53:02.462Z,7.72
2017-10-19T01:54:02.399Z,7.71
2017-10-19T01:55:02.466Z,7.71
2017-10-19T01:56:02.401Z,7.71
2017-10-19T01:57:02.468Z,7.70
2017-10-19T01:58:02.399Z,7.68
2017-10-19T01:59:02.467Z,7.67
2017-10-19T02:00:02.398Z,7.70
2017-10-19T02:01:02.471Z,7.67
2017-10-19T02:02:02.473Z,7.67
2017-10-19T02:03:02.404Z,7.67
2017-10-19T02:04:02.479Z,7.64
2017-10-19T02:05:02.473Z,7.63
2017-10-19T02:06:02.407Z,7.60
2017-10-19T02:07:02.412Z,7.60
2017-10-19T02:08:02.473Z,7.59
2017-10-19T02:09:02.469Z,7.58
2017-10-19T02:10:02.373Z,7.59
2017-10-19T02:11:02.465Z,7.59
2017-10-19T02:12:02.406Z,7.59
2017-10-19T02:13:02.355Z,7.60
2017-10-19T02:14:02.378Z,7.59
2017-10-19T02:15:02.477Z,7.58
2017-10-19T02:16:02.446Z,7.58
2017-10-19T02:17:02.424Z,7.55
2017-10-19T02:18:02.412Z,7.53
2017-10-19T02:19:02.451Z,7.53
2017-10-19T02:20:02.426Z,7.51
2017-10-19T02:21:02.377Z,7.51
2017-10-19T02:22:02.449Z,7.53
2017-10-19T02:23:02.475Z,7.52
2017-10-19T02:24:02.434Z,7.53
2017-10-19T02:25:02.481Z,7.52
2017-10-19T02:26:02.430Z,7.53
2017-10-19T02:27:02.477Z,7.53
2017-10-19T02:28:02.473Z,7.52
2017-10-19T02:29:02.434Z,7.55
2017-10-19T02:30:02.485Z,7.55
2017-10-19T02:31:02.418Z,7.55
2017-10-19T02:32:02.487Z,7.55
2017-10-19T02:33:02.429Z,7.55
2017-10-19T02:34:02.493Z,7.55
2017-10-19T02:35:02.422Z,7.55
2017-10-19T02:36:02.489Z,7.55
2017-10-19T02:37:02.428Z,7.56
2017-10-19T02:38:02.490Z,7.58
2017-10-19T02:39:02.501Z,7.58
2017-10-19T02:40:02.491Z,7.58
2017-10-19T02:41:02.422Z,7.58
2017-10-19T02:42:02.521Z,7.59
2017-10-19T02:43:02.436Z,7.56
2017-10-19T02:44:02.497Z,7.55
2017-10-19T02:45:02.496Z,7.56
2017-10-19T02:46:02.498Z,7.58
2017-10-19T02:47:02.453Z,7.56
2017-10-19T02:48:02.428Z,7.56
2017-10-19T02:49:02.380Z,7.55
2017-10-19T02:50:02.465Z,7.55
2017-10-19T02:51:02.432Z,7.53
2017-10-19T02:52:02.432Z,7.56
2017-10-19T02:53:02.400Z,7.56
2017-10-19T02:54:02.404Z,7.58
2017-10-19T02:55:02.471Z,7.60
2017-10-19T02:56:02.501Z,7.60
2017-10-19T02:57:02.500Z,7.60
2017-10-19T02:58:02.487Z,7.59
2017-10-19T02:59:02.409Z,7.60
2017-10-19T03:00:02.437Z,7.59
2017-10-19T03:01:02.496Z,7.58
2017-10-19T03:02:02.417Z,7.58
2017-10-19T03:03:02.414Z,7.55
2017-10-19T03:04:02.482Z,7.53
2017-10-19T03:05:02.410Z,7.53
2017-10-19T03:06:02.442Z,7.52
2017-10-19T03:07:02.418Z,7.52
2017-10-19T03:08:02.376Z,7.51
2017-10-19T03:09:02.379Z,7.49
2017-10-19T03:10:02.471Z,7.52
2017-10-19T03:11:02.490Z,7.52
2017-10-19T03:12:02.383Z,7.51
2017-10-19T03:13:02.498Z,7.51
2017-10-19T03:14:02.494Z,7.51
2017-10-19T03:15:02.465Z,7.53
2017-10-19T03:16:02.453Z,7.52
2017-10-19T03:17:02.473Z,7.52
2017-10-19T03:18:02.385Z,7.52
2017-10-19T03:19:02.515Z,7.52
2017-10-19T03:20:02.445Z,7.53
2017-10-19T03:21:02.452Z,7.52
2017-10-19T03:22:02.517Z,7.53
2017-10-19T03:23:02.452Z,7.53
2017-10-19T03:24:02.448Z,7.53
2017-10-19T03:25:02.521Z,7.53
2017-10-19T03:26:02.452Z,7.53
2017-10-19T03:27:02.523Z,7.53
2017-10-19T03:28:02.452Z,7.55
2017-10-19T03:29:02.401Z,7.55
2017-10-19T03:30:02.423Z,7.56
2017-10-19T03:31:02.493Z,7.53
2017-10-19T03:32:02.427Z,7.55
2017-10-19T03:33:02.427Z,7.53
2017-10-19T03:34:02.457Z,7.51
2017-10-19T03:35:02.495Z,7.49
2017-10-19T03:36:02.515Z,7.51
2017-10-19T03:37:02.432Z,7.51
2017-10-19T03:38:02.456Z,7.53
2017-10-19T03:39:02.512Z,7.53
2017-10-19T03:40:02.471Z,7.53
2017-10-19T03:41:02.475Z,7.55
2017-10-19T03:42:02.454Z,7.55
2017-10-19T03:43:02.421Z,7.56
2017-10-19T03:44:02.426Z,7.55
2017-10-19T03:45:02.464Z,7.55
2017-10-19T03:46:02.459Z,7.53
2017-10-19T03:47:02.563Z,7.55
2017-10-19T03:48:02.388Z,7.56
2017-10-19T03:49:02.463Z,7.56
2017-10-19T03:50:02.536Z,7.55
2017-10-19T03:51:02.466Z,7.55
2017-10-19T03:52:02.535Z,7.56
2017-10-19T03:53:02.495Z,7.55
2017-10-19T03:54:02.473Z,7.55
2017-10-19T03:55:02.536Z,7.53
2017-10-19T03:56:02.563Z,7.53
2017-10-19T03:57:02.542Z,7.56
2017-10-19T03:58:02.474Z,7.56
2017-10-19T03:59:02.404Z,7.58
2017-10-19T04:00:02.470Z,7.58
2017-10-19T04:01:02.406Z,7.59
2017-10-19T04:02:02.444Z,7.60
2017-10-19T04:03:02.528Z,7.63
2017-10-19T04:04:02.534Z,7.63
2017-10-19T04:05:02.407Z,7.64
2017-10-19T04:06:02.528Z,7.64
2017-10-19T04:07:02.454Z,7.65
2017-10-19T04:08:02.530Z,7.65
2017-10-19T04:09:02.450Z,7.67
2017-10-19T04:10:02.488Z,7.67
2017-10-19T04:11:02.504Z,7.68
2017-10-19T04:12:02.395Z,7.71
2017-10-19T04:13:02.456Z,7.70
2017-10-19T04:14:02.492Z,7.72
2017-10-19T04:15:02.443Z,7.72
2017-10-19T04:16:02.446Z,7.72
2017-10-19T04:17:02.480Z,7.72
2017-10-19T04:18:02.406Z,7.72
2017-10-19T04:19:02.501Z,7.75
2017-10-19T04:20:02.539Z,7.75
2017-10-19T04:21:02.418Z,7.75
2017-10-19T04:22:02.463Z,7.76
2017-10-19T04:23:02.545Z,7.78
2017-10-19T04:24:02.544Z,7.79
2017-10-19T04:25:02.485Z,7.81
2017-10-19T04:26:02.490Z,7.81
2017-10-19T04:27:02.467Z,7.81
2017-10-19T04:28:02.554Z,7.79
2017-10-19T04:29:02.551Z,7.79
2017-10-19T04:30:02.560Z,7.81
2017-10-19T04:31:02.486Z,7.79
2017-10-19T04:32:02.509Z,7.79
2017-10-19T04:33:02.552Z,7.76
2017-10-19T04:34:02.552Z,7.72
2017-10-19T04:35:02.554Z,7.71
2017-10-19T04:36:02.495Z,7.70
2017-10-19T04:37:02.486Z,7.68
2017-10-19T04:38:02.549Z,7.70
2017-10-19T04:39:02.565Z,7.67
2017-10-19T04:40:02.558Z,7.67
2017-10-19T04:41:02.565Z,7.67
2017-10-19T04:42:02.498Z,7.67
2017-10-19T04:43:02.497Z,7.67
2017-10-19T04:44:02.574Z,7.65
2017-10-19T04:45:02.571Z,7.64
2017-10-19T04:46:02.503Z,7.65
2017-10-19T04:47:02.568Z,7.65
2017-10-19T04:48:02.506Z,7.64
2017-10-19T04:49:02.473Z,7.64
2017-10-19T04:50:02.537Z,7.64
2017-10-19T04:51:02.520Z,7.60
2017-10-19T04:52:02.566Z,7.59
2017-10-19T04:53:02.510Z,7.59
2017-10-19T04:54:02.438Z,7.60
2017-10-19T04:55:02.478Z,7.60
2017-10-19T04:56:02.436Z,7.60
2017-10-19T04:57:02.481Z,7.63
2017-10-19T04:58:02.478Z,7.64
2017-10-19T04:59:02.468Z,7.65
2017-10-19T05:00:02.462Z,7.65
2017-10-19T05:01:02.447Z,7.65
2017-10-19T05:02:02.442Z,7.64
2017-10-19T05:03:02.442Z,7.65
2017-10-19T05:04:02.468Z,7.70
2017-10-19T05:05:02.451Z,7.71
2017-10-19T05:06:02.537Z,7.72
2017-10-19T05:07:02.474Z,7.74
2017-10-19T05:08:02.472Z,7.74
2017-10-19T05:09:02.583Z,7.75
2017-10-19T05:10:02.516Z,7.74
2017-10-19T05:11:02.516Z,7.75
2017-10-19T05:12:02.468Z,7.75
2017-10-19T05:13:02.512Z,7.75
2017-10-19T05:14:02.472Z,7.75
2017-10-19T05:15:02.516Z,7.76
2017-10-19T05:16:02.585Z,7.76
2017-10-19T05:17:02.520Z,7.76
2017-10-19T05:18:02.622Z,7.75
2017-10-19T05:19:02.557Z,7.75
2017-10-19T05:20:02.603Z,7.76
2017-10-19T05:21:02.574Z,7.75
2017-10-19T05:22:02.491Z,7.74
2017-10-19T05:23:02.455Z,7.74
2017-10-19T05:24:02.560Z,7.74
2017-10-19T05:25:02.489Z,7.75
2017-10-19T05:26:02.494Z,7.75
2017-10-19T05:27:02.578Z,7.74
2017-10-19T05:28:02.561Z,7.74
2017-10-19T05:29:02.522Z,7.71
2017-10-19T05:30:02.594Z,7.71
2017-10-19T05:31:02.527Z,7.71
2017-10-19T05:32:02.529Z,7.71
2017-10-19T05:33:02.567Z,7.71
2017-10-19T05:34:02.530Z,7.70
2017-10-19T05:35:02.600Z,7.70
2017-10-19T05:36:02.532Z,7.68
2017-10-19T05:37:02.600Z,7.68
2017-10-19T05:38:02.600Z,7.67
2017-10-19T05:39:02.548Z,7.67
2017-10-19T05:40:02.503Z,7.65
2017-10-19T05:41:02.582Z,7.67
2017-10-19T05:42:02.591Z,7.64
2017-10-19T05:43:02.509Z,7.63
2017-10-19T05:44:02.602Z,7.63
2017-10-19T05:45:02.484Z,7.63
2017-10-19T05:46:02.465Z,7.63
2017-10-19T05:47:02.559Z,7.60
2017-10-19T05:48:02.507Z,7.60
2017-10-19T05:49:02.557Z,7.63
2017-10-19T05:50:02.540Z,7.59
2017-10-19T05:51:02.514Z,7.60
2017-10-19T05:52:02.586Z,7.59
2017-10-19T05:53:02.541Z,7.58
2017-10-19T05:54:02.563Z,7.56
2017-10-19T05:55:02.541Z,7.52
2017-10-19T05:56:02.609Z,7.52
2017-10-19T05:57:02.611Z,7.51
2017-10-19T05:58:02.610Z,7.49
2017-10-19T06:00:02.518Z,7.49
2017-10-19T06:01:02.606Z,7.49
2017-10-19T06:02:02.581Z,7.51
2017-10-19T06:03:02.546Z,7.51
2017-10-19T06:04:02.482Z,7.51
2017-10-19T06:05:02.603Z,7.52
2017-10-19T06:06:02.551Z,7.53
2017-10-19T06:07:02.564Z,7.53
2017-10-19T06:08:02.586Z,7.56
2017-10-19T06:09:02.485Z,7.56
2017-10-19T06:10:02.563Z,7.59
2017-10-19T06:11:02.569Z,7.59
2017-10-19T06:12:02.518Z,7.63
2017-10-19T06:13:02.475Z,7.63
2017-10-19T06:14:02.514Z,7.60
2017-10-19T06:15:02.470Z,7.63
2017-10-19T06:16:02.563Z,7.63
2017-10-19T06:17:02.474Z,7.65
2017-10-19T06:18:02.571Z,7.67
2017-10-19T06:19:02.518Z,7.70
2017-10-19T06:20:02.624Z,7.70
2017-10-19T06:21:02.565Z,7.71
2017-10-19T06:22:02.627Z,7.68
2017-10-19T06:23:02.552Z,7.71
2017-10-19T06:24:02.627Z,7.71
2017-10-19T06:25:02.628Z,7.72
2017-10-19T06:26:02.580Z,7.72
2017-10-19T06:27:02.632Z,7.72
2017-10-19T06:28:02.591Z,7.72
2017-10-19T06:29:02.629Z,7.72
2017-10-19T06:30:02.528Z,7.72
2017-10-19T06:31:02.631Z,7.74
2017-10-19T06:32:02.555Z,7.74
2017-10-19T06:33:02.558Z,7.74
2017-10-19T06:34:02.511Z,7.75
2017-10-19T06:35:02.585Z,7.76
2017-10-19T06:36:02.602Z,7.76
2017-10-19T06:37:02.580Z,7.76
2017-10-19T06:38:02.578Z,7.78
2017-10-19T06:39:02.564Z,7.79
2017-10-19T06:40:02.566Z,7.79
2017-10-19T06:41:02.543Z,7.79
2017-10-19T06:42:02.564Z,7.81
2017-10-19T06:43:02.541Z,7.79
2017-10-19T06:44:02.637Z,7.79
2017-10-19T06:45:02.605Z,7.82
2017-10-19T06:46:02.540Z,7.85
2017-10-19T06:47:02.609Z,7.86
2017-10-19T06:48:02.541Z,7.86
2017-10-19T06:49:02.543Z,7.89
2017-10-19T06:50:02.566Z,7.90
2017-10-19T06:51:02.591Z,7.97
2017-10-19T06:52:02.643Z,7.97
2017-10-19T06:53:02.571Z,7.95
2017-10-19T06:54:02.649Z,7.95
2017-10-19T06:55:02.588Z,7.98
2017-10-19T06:56:02.572Z,7.95
2017-10-19T06:57:02.647Z,7.98
2017-10-19T06:58:02.573Z,7.99
2017-10-19T06:59:02.646Z,7.99
2017-10-19T07:00:02.543Z,7.99
2017-10-19T07:01:02.544Z,7.98
2017-10-19T07:02:02.503Z,7.98
2017-10-19T07:03:02.659Z,7.99
2017-10-19T07:04:02.593Z,7.98
2017-10-19T07:05:02.596Z,7.99
2017-10-19T07:06:02.548Z,7.99
2017-10-19T07:07:02.593Z,8.04
2017-10-19T07:08:02.503Z,8.05
2017-10-19T07:09:02.587Z,8.08
2017-10-19T07:10:02.537Z,8.12
2017-10-19T07:11:02.609Z,8.17
2017-10-19T07:12:02.594Z,8.15
2017-10-19T07:13:02.547Z,8.19
2017-10-19T07:14:02.550Z,8.17
2017-10-19T07:15:02.553Z,8.19
2017-10-19T07:16:02.553Z,8.22
2017-10-19T07:17:02.560Z,8.23
2017-10-19T07:18:02.511Z,8.23
2017-10-19T07:19:02.544Z,8.24
2017-10-19T07:20:02.658Z,8.24
2017-10-19T07:21:02.609Z,8.28
2017-10-19T07:22:02.606Z,8.34
2017-10-19T07:23:02.614Z,8.35
2017-10-19T07:24:02.616Z,8.39
2017-10-19T07:25:02.664Z,8.38
2017-10-19T07:26:02.652Z,8.39
2017-10-19T07:27:02.562Z,8.34
2017-10-19T07:28:02.657Z,8.34
2017-10-19T07:29:02.651Z,8.31
2017-10-19T07:30:02.570Z,8.34
2017-10-19T07:31:02.564Z,8.39
2017-10-19T07:32:02.516Z,8.38
2017-10-19T07:33:02.523Z,8.37
2017-10-19T07:34:02.520Z,8.37
2017-10-19T07:35:02.570Z,8.38
2017-10-19T07:36:02.518Z,8.45
2017-10-19T07:37:02.568Z,8.35
2017-10-19T07:38:02.522Z,8.28
2017-10-19T07:39:02.525Z,8.28
2017-10-19T07:41:02.579Z,8.35
2017-10-19T07:42:02.619Z,8.42
2017-10-19T07:43:02.615Z,8.46
2017-10-19T07:44:02.528Z,8.45
2017-10-19T07:45:02.617Z,8.47
2017-10-19T07:46:02.572Z,8.49
2017-10-19T07:47:02.525Z,8.56
2017-10-19T07:48:02.616Z,8.58
2017-10-19T07:49:02.571Z,8.61
2017-10-19T07:50:02.679Z,8.64
2017-10-19T07:51:02.612Z,8.72
2017-10-19T07:52:02.609Z,8.80
2017-10-19T07:53:02.681Z,8.82
2017-10-19T07:54:02.609Z,8.85
2017-10-19T07:55:02.681Z,8.87
2017-10-19T07:56:02.609Z,8.89
2017-10-19T07:57:02.686Z,8.87
2017-10-19T07:58:02.610Z,8.87
2017-10-19T07:59:02.689Z,8.89
2017-10-19T08:00:02.617Z,8.85
2017-10-19T08:01:02.611Z,8.87
2017-10-19T08:02:02.687Z,8.94
2017-10-19T08:03:02.615Z,9.00
2017-10-19T08:04:02.685Z,9.05
2017-10-19T08:05:02.620Z,9.04
2017-10-19T08:06:02.687Z,9.04
2017-10-19T08:07:02.616Z,9.07
2017-10-19T08:08:02.687Z,9.05
2017-10-19T08:09:02.615Z,9.07
2017-10-19T08:10:02.572Z,9.09
2017-10-19T08:11:02.637Z,9.16
2017-10-19T08:12:02.591Z,9.20
2017-10-19T08:13:02.691Z,9.18
2017-10-19T08:14:02.573Z,9.13
2017-10-19T08:15:02.576Z,9.18
2017-10-19T08:16:02.704Z,9.20
2017-10-19T08:17:02.579Z,9.28
2017-10-19T08:18:02.624Z,9.28
2017-10-19T08:19:02.667Z,9.31
2017-10-19T08:20:02.646Z,9.34
2017-10-19T08:21:02.587Z,9.47
2017-10-19T08:22:02.570Z,9.54
2017-10-19T08:23:02.642Z,9.68
2017-10-19T08:24:02.624Z,9.73
2017-10-19T08:25:02.588Z,9.75
2017-10-19T08:26:02.561Z,9.75
2017-10-19T08:27:02.551Z,9.57
2017-10-19T08:28:02.631Z,9.50
2017-10-19T08:29:02.572Z,9.44
2017-10-19T08:30:02.639Z,9.40
2017-10-19T08:31:02.604Z,9.43
2017-10-19T08:32:02.672Z,9.53
2017-10-19T08:33:02.702Z,9.58
2017-10-19T08:34:02.761Z,9.66
2017-10-19T08:35:02.630Z,9.72
2017-10-19T08:36:02.676Z,9.76
2017-10-19T08:37:02.650Z,9.80
2017-10-19T08:38:02.633Z,9.90
2017-10-19T08:39:02.617Z,10.05
2017-10-19T08:40:02.700Z,10.17
2017-10-19T08:41:02.573Z,10.30
2017-10-19T08:42:02.698Z,10.46
2017-10-19T08:43:02.698Z,10.47
2017-10-19T08:44:02.681Z,10.41
2017-10-19T08:45:02.701Z,10.34
2017-10-19T08:46:02.719Z,10.35
2017-10-19T08:47:02.710Z,10.45
2017-10-19T08:48:02.698Z,10.53
2017-10-19T08:49:02.712Z,10.63
2017-10-19T08:50:02.664Z,10.61
2017-10-19T08:51:02.696Z,10.65
2017-10-19T08:52:02.660Z,10.65
2017-10-19T08:53:02.640Z,10.77
2017-10-19T08:54:02.575Z,10.65
2017-10-19T08:55:02.645Z,10.63
2017-10-19T08:56:02.675Z,10.72
2017-10-19T08:57:02.606Z,10.87
2017-10-19T08:58:02.626Z,10.93
2017-10-19T08:59:02.673Z,11.03
2017-10-19T09:00:02.652Z,11.20
2017-10-19T09:01:02.577Z,11.32
2017-10-19T09:02:02.576Z,11.29
2017-10-19T09:03:02.650Z,11.09
2017-10-19T09:04:02.578Z,11.14
2017-10-19T09:05:02.679Z,10.88
2017-10-19T09:06:02.583Z,10.95
2017-10-19T09:07:02.624Z,11.03
2017-10-19T09:08:02.612Z,11.13
2017-10-19T09:09:02.597Z,11.20
2017-10-19T09:10:02.730Z,11.24
2017-10-19T09:11:02.665Z,11.24
2017-10-19T09:12:02.732Z,11.22
2017-10-19T09:13:02.660Z,11.38
2017-10-19T09:14:02.653Z,11.57
2017-10-19T09:15:02.731Z,11.67
2017-10-19T09:16:02.731Z,11.67
2017-10-19T09:17:02.653Z,11.79
2017-10-19T09:18:02.734Z,12.01
2017-10-19T09:19:02.732Z,11.99
2017-10-19T09:20:02.561Z,12.06
2017-10-19T09:21:02.560Z,12.13
2017-10-19T09:22:02.637Z,12.20
2017-10-19T09:23:02.553Z,12.12
2017-10-19T09:24:02.566Z,12.05
2017-10-19T09:25:02.601Z,11.98
2017-10-19T09:26:02.669Z,12.01
2017-10-19T09:27:02.661Z,12.21
2017-10-19T09:28:02.644Z,12.37
2017-10-19T09:29:02.557Z,12.64
2017-10-19T09:30:02.667Z,12.79
2017-10-19T09:31:02.748Z,12.95
2017-10-19T09:32:02.746Z,12.98
2017-10-19T09:33:02.667Z,13.05
2017-10-19T09:34:02.743Z,13.13
2017-10-19T09:35:02.688Z,13.28
2017-10-19T09:36:02.742Z,13.39
2017-10-19T09:37:02.742Z,13.54
2017-10-19T09:38:02.699Z,13.76
2017-10-19T09:39:02.672Z,14.04
2017-10-19T09:40:02.707Z,14.24
2017-10-19T09:41:02.747Z,14.44
2017-10-19T09:42:02.745Z,14.29
2017-10-19T09:43:02.750Z,14.38
2017-10-19T09:44:02.681Z,14.14
2017-10-19T09:45:02.748Z,14.11
2017-10-19T09:46:02.681Z,14.20
2017-10-19T09:47:02.749Z,14.04
2017-10-19T09:48:02.679Z,13.98
2017-10-19T09:49:02.750Z,14.04
2017-10-19T09:50:02.659Z,14.15
2017-10-19T09:51:02.636Z,14.25
2017-10-19T09:52:02.686Z,14.36
2017-10-19T09:53:02.679Z,14.50
2017-10-19T09:54:02.732Z,14.42
2017-10-19T09:55:02.661Z,14.44
2017-10-19T09:56:02.665Z,14.66
2017-10-19T09:57:02.672Z,14.64
2017-10-19T09:58:02.683Z,14.43
2017-10-19T09:59:02.666Z,14.44
2017-10-19T10:00:02.760Z,14.55
2017-10-19T10:01:02.691Z,14.78
2017-10-19T10:02:02.761Z,14.94
2017-10-19T10:03:02.687Z,15.00
2017-10-19T10:04:02.761Z,14.98
2017-10-19T10:05:02.757Z,15.08
2017-10-19T10:06:02.685Z,15.17
2017-10-19T10:07:02.766Z,15.22
2017-10-19T10:08:02.690Z,15.39
2017-10-19T10:09:02.764Z,15.53
2017-10-19T10:10:02.698Z,15.65
2017-10-19T10:11:02.762Z,15.84
2017-10-19T10:12:02.692Z,16.05
2017-10-19T10:13:02.767Z,16.24
2017-10-19T10:14:02.765Z,16.25
2017-10-19T10:15:02.690Z,16.25
2017-10-19T10:16:02.793Z,16.33
2017-10-19T10:17:02.769Z,16.47
2017-10-19T10:18:02.695Z,16.61
2017-10-19T10:19:02.769Z,16.85
2017-10-19T10:20:02.616Z,16.99
2017-10-19T10:21:02.667Z,17.09
2017-10-19T10:22:02.699Z,17.13
2017-10-19T10:23:02.714Z,17.16
2017-10-19T10:24:02.671Z,17.22
2017-10-19T10:25:02.621Z,17.33
2017-10-19T10:26:02.668Z,17.40
2017-10-19T10:27:02.715Z,17.51
2017-10-19T10:28:02.625Z,17.39
2017-10-19T10:29:02.672Z,17.21
2017-10-19T10:30:02.776Z,16.98
2017-10-19T10:31:02.701Z,16.99
2017-10-19T10:32:02.776Z,17.08
2017-10-19T10:33:02.703Z,17.12
2017-10-19T10:34:02.700Z,17.01
2017-10-19T10:35:02.777Z,16.97
2017-10-19T10:36:02.711Z,17.13
2017-10-19T10:37:02.778Z,17.33
2017-10-19T10:38:02.709Z,17.43
2017-10-19T10:39:02.783Z,17.51
2017-10-19T10:40:02.782Z,17.46
2017-10-19T10:41:02.723Z,17.42
2017-10-19T10:42:02.783Z,17.60
2017-10-19T10:43:02.715Z,17.89
2017-10-19T10:44:02.785Z,18.02
2017-10-19T10:45:02.714Z,18.10
2017-10-19T10:46:02.783Z,17.98
2017-10-19T10:47:02.713Z,17.89
2017-10-19T10:48:02.789Z,18.02
2017-10-19T10:49:02.800Z,18.17
2017-10-19T10:50:02.786Z,18.06
2017-10-19T10:51:02.714Z,18.17
2017-10-19T10:52:02.802Z,18.09
2017-10-19T10:53:02.713Z,18.32
2017-10-19T10:54:02.790Z,18.28
2017-10-19T10:55:02.725Z,18.32
2017-10-19T10:56:02.795Z,18.43
2017-10-19T10:57:02.721Z,18.41
2017-10-19T10:58:02.678Z,18.54
2017-10-19T10:59:02.723Z,18.62
2017-10-19T11:00:02.792Z,18.70
2017-10-19T11:01:02.718Z,18.59
2017-10-19T11:02:02.795Z,18.57
2017-10-19T11:03:02.840Z,18.50
2017-10-19T11:04:02.797Z,18.65
2017-10-19T11:05:02.759Z,18.73
2017-10-19T11:06:02.725Z,18.81
2017-10-19T11:07:02.799Z,18.88
2017-10-19T11:08:02.729Z,18.70
2017-10-19T11:09:02.798Z,18.64
2017-10-19T11:10:02.680Z,18.77
2017-10-19T11:11:02.765Z,19.03
2017-10-19T11:12:02.782Z,19.20
2017-10-19T11:13:02.728Z,19.31
2017-10-19T11:14:02.728Z,19.49
2017-10-19T11:15:02.727Z,19.64
2017-10-19T11:16:02.768Z,19.83
2017-10-19T11:17:02.724Z,19.46
2017-10-19T11:18:02.803Z,19.35
2017-10-19T11:19:02.704Z,19.24
2017-10-19T11:20:02.694Z,19.15
2017-10-19T11:21:02.734Z,19.13
2017-10-19T11:22:02.809Z,19.02
2017-10-19T11:23:02.823Z,18.77
2017-10-19T11:24:02.733Z,18.64
2017-10-19T11:25:02.811Z,18.69
2017-10-19T11:26:02.737Z,18.84
2017-10-19T11:27:02.735Z,18.97
2017-10-19T11:28:02.811Z,19.03
2017-10-19T11:29:02.734Z,19.19
2017-10-19T11:30:02.812Z,19.43
2017-10-19T11:31:02.742Z,19.33
2017-10-19T11:32:02.811Z,19.44
2017-10-19T11:33:02.748Z,19.70
2017-10-19T11:34:02.814Z,19.80
2017-10-19T11:35:02.745Z,19.84
2017-10-19T11:36:02.745Z,19.85
2017-10-19T11:37:02.741Z,19.95
2017-10-19T11:38:02.818Z,19.88
2017-10-19T11:39:02.817Z,19.79
2017-10-19T11:40:02.748Z,19.88
2017-10-19T11:41:02.818Z,19.84
2017-10-19T11:42:02.752Z,19.81
2017-10-19T11:43:02.820Z,19.88
2017-10-19T11:44:02.772Z,20.05
2017-10-19T11:45:02.822Z,20.18
2017-10-19T11:46:02.758Z,20.12
2017-10-19T11:47:02.822Z,20.23
2017-10-19T11:48:02.749Z,20.25
2017-10-19T11:49:02.780Z,20.27
2017-10-19T11:50:02.822Z,20.47
2017-10-19T11:51:02.825Z,20.49
2017-10-19T11:52:02.751Z,20.53
2017-10-19T11:53:02.825Z,20.35
2017-10-19T11:54:02.752Z,20.20
2017-10-19T11:55:02.840Z,20.24
2017-10-19T11:56:02.754Z,20.49
2017-10-19T11:57:02.828Z,20.57
2017-10-19T11:58:02.757Z,20.50
2017-10-19T11:59:02.830Z,20.42
2017-10-19T12:00:02.758Z,20.57
2017-10-19T12:01:02.830Z,20.56
2017-10-19T12:02:02.764Z,20.57
2017-10-19T12:03:02.850Z,20.57
2017-10-19T12:04:02.762Z,20.77
2017-10-19T12:05:02.764Z,20.80
2017-10-19T12:06:02.841Z,20.43
2017-10-19T12:07:02.834Z,20.07
2017-10-19T12:08:02.760Z,20.12
2017-10-19T12:09:02.841Z,20.27
2017-10-19T12:10:02.762Z,20.38
2017-10-19T12:11:02.836Z,20.21
2017-10-19T12:12:02.841Z,19.91
2017-10-19T12:13:02.843Z,20.05
2017-10-19T12:14:02.765Z,20.30
2017-10-19T12:15:02.843Z,20.49
2017-10-19T12:16:02.839Z,20.57
2017-10-19T12:17:02.844Z,20.73
2017-10-19T12:18:02.843Z,20.72
2017-10-19T12:19:02.777Z,20.88
2017-10-19T12:20:02.802Z,21.02
2017-10-19T12:21:02.771Z,20.72
2017-10-19T12:22:02.848Z,20.42
2017-10-19T12:23:02.771Z,20.34
2017-10-19T12:24:02.769Z,20.20
2017-10-19T12:25:02.855Z,20.23
2017-10-19T12:26:02.779Z,20.27
2017-10-19T12:27:02.855Z,20.52
2017-10-19T12:28:02.771Z,20.79
2017-10-19T12:29:02.805Z,21.04
2017-10-19T12:30:02.851Z,21.17
2017-10-19T12:31:02.851Z,21.42
2017-10-19T12:32:02.779Z,21.64
2017-10-19T12:33:02.849Z,21.72
2017-10-19T12:34:02.742Z,21.73
2017-10-19T12:35:02.778Z,21.82
2017-10-19T12:36:02.736Z,21.94
2017-10-19T12:37:02.776Z,22.02
2017-10-19T12:38:02.857Z,22.06
2017-10-19T12:39:02.776Z,22.02
2017-10-19T12:40:02.861Z,22.24
2017-10-19T12:41:02.787Z,22.20
2017-10-19T12:42:02.855Z,22.32
2017-10-19T12:43:02.785Z,22.23
2017-10-19T12:44:02.857Z,22.41
2017-10-19T12:45:02.783Z,22.63
2017-10-19T12:46:02.858Z,22.63
2017-10-19T12:47:02.782Z,22.49
2017-10-19T12:48:02.859Z,22.43
2017-10-19T12:49:02.788Z,22.32
2017-10-19T12:50:02.854Z,22.41
2017-10-19T12:51:02.858Z,22.50
2017-10-19T12:52:02.856Z,22.43
2017-10-19T12:53:02.846Z,22.52
2017-10-19T12:54:02.859Z,22.64
2017-10-19T12:55:02.742Z,22.75
2017-10-19T12:56:02.805Z,22.56
2017-10-19T12:57:02.788Z,22.27
2017-10-19T12:58:02.852Z,22.24
2017-10-19T12:59:02.746Z,22.19
2017-10-19T13:00:02.814Z,22.02
2017-10-19T13:01:02.797Z,22.06
2017-10-19T13:02:02.817Z,21.98
2017-10-19T13:03:02.831Z,21.91
2017-10-19T13:04:02.750Z,21.86
2017-10-19T13:05:02.840Z,21.80
2017-10-19T13:06:02.797Z,21.73
2017-10-19T13:07:02.868Z,21.76
2017-10-19T13:08:02.862Z,21.76
2017-10-19T13:09:02.818Z,21.61
2017-10-19T13:10:02.820Z,21.58
2017-10-19T13:11:02.803Z,21.72